Hong Kong, Hong Kong

08:27 AM HKT on Agustus 31, 2015 (GMT +0800)
Tung Chung | | Change Station
CLOSE
Current Station
Personal Weather Stations
Location: New Territories, NEW TERRITORIES
Elevation: 10 ft
Nearby Weather Stations

Elev 10 ft 22.29 °N, 113.95 °E | Updated 19 seconds ago

Scattered Clouds
Mendung Tidak Merata
80.1 °F
Feels Like 86 °F
N
0.0
Angin Variable Angin from Arah Utara
Gusts 0.0 mph

Siang Ini
High -- | Low -- °F
--% Chance of Precip.
Yesterday
High -- | Low -- °F
Precip. -- Inch
6:06 AM 6:42 PM
Bulan Purnama, 98% visible
Tekanan 29.74 Inch
Jarak Pandang 6.2 Mil
Awan Few 1500 ft
Mendung Tidak Merata 3000 ft
Ideks Panas 86 °F
Titik Embun 77 °F
Kelembaban 90%
Rainfall 0.00 Inch
Snow Depth Not available.
UV 1.0 out of 12
Pollen Not available.
Air Quality Not available.
Flu Activity Not available.
METAR VHHH 310000Z 08006KT 9999 FEW015 SCT030 28/25 Q1007 NOSIG
Tekanan 29.74 Inch
Jarak Pandang 6.2 Mil
Awan Few 1500 ft
Mendung Tidak Merata 3000 ft
Ideks Panas 86 °F
Titik Embun 77 °F
Kelembaban 90%
Rainfall 0.00 Inch
Snow Depth Not available.
UV 1.0 out of 12
Pollen Not available.
Air Quality Not available.
Flu Activity Not available.
METAR VHHH 310000Z 08006KT 9999 FEW015 SCT030 28/25 Q1007 NOSIG

10-Day Weather Forecast

×

Almanac

Astronomi

Aug. 31, 2015 Rise Set
Actual Time
Civil Twilight
Nautical Twilight
Astronomical Twilight
Moon
Length Of Visible Light
Lama Satu Hari
Tomorrow will be .
, % of the Moon is Illuminated

Today's Extremes

Country Highs Country Lows

Community

WunderPhotos

Upload Photos

1,851,104 photos uploaded!

WunderBlogs® & News

Nearby

Air Quality

  Air Quality AQ Index Pollutant
Not available.

Snow Depth

Station Depth Elevation

Earthquake Activity

City Distance Mag. Time & Date
Minimum magnitude displayed is 2.5.

Coastal Water Temperatures

Lokasi Temperatur

Stations

Nearby Weather Stations

Station Location Temp Angin Dingin Titik Embun Kelembaban Angin Precip. Elev Telah Diperbaharui Type